Time;durP1;ratioP1;P1;durP2;ratioP2;P2;SDS_P1;SDS_P2;PMS_P1;PMS_P2;Temp;Humidity;BMP_temperature;BMP_pressure;BME280_temperature;BME280_humidity;BME280_pressure;Samples;Min_cycle;Max_cycle;Signal;HPM_P1;HPM_P2
2022/12/26 00:01:29;;;;;;;8.07;2.70;;;;;;;;;;5002099;28;20046;-66
2022/12/26 00:03:55;;;;;;;8.85;2.42;;;;;;;;;;5001485;28;20045;-64
2022/12/26 00:06:28;;;;;;;5.28;2.42;;;;;;;;;;4984393;28;20155;-68
2022/12/26 00:08:54;;;;;;;7.65;2.25;;;;;;;;;;4998355;28;20081;-65
2022/12/26 00:11:21;;;;;;;6.35;2.20;;;;;;;;;;4997623;28;20281;-65
2022/12/26 00:13:53;;;;;;;8.38;2.50;;;;;;;;;;4999419;28;20532;-66
2022/12/26 00:16:20;;;;;;;8.98;2.40;;;;;;;;;;5003813;28;20169;-65
2022/12/26 00:18:47;;;;;;;4.85;2.40;;;;;;;;;;5000769;28;20042;-65
2022/12/26 00:21:15;;;;;;;5.68;2.25;;;;;;;;;;5001320;28;20050;-65
2022/12/26 00:23:41;;;;;;;6.88;2.10;;;;;;;;;;4999999;28;20061;-65
2022/12/26 00:26:13;;;;;;;4.85;2.40;;;;;;;;;;4991157;28;20535;-64
2022/12/26 00:28:39;;;;;;;5.50;2.53;;;;;;;;;;4994392;28;20041;-64
2022/12/26 00:31:09;;;;;;;5.03;2.45;;;;;;;;;;5000424;28;20041;-66
2022/12/26 00:33:35;;;;;;;5.97;2.28;;;;;;;;;;5001865;28;20041;-66
2022/12/26 00:36:04;;;;;;;8.00;2.47;;;;;;;;;;5002661;28;20358;-64
2022/12/26 00:38:29;;;;;;;7.43;2.30;;;;;;;;;;5000004;28;20094;-65
2022/12/26 00:40:56;;;;;;;9.30;2.22;;;;;;;;;;4983023;28;20343;-66
2022/12/26 00:43:21;;;;;;;6.40;2.78;;;;;;;;;;4995091;28;20054;-64
2022/12/26 00:45:47;;;;;;;9.75;2.20;;;;;;;;;;5000661;28;20045;-64
2022/12/26 00:48:13;;;;;;;4.70;2.25;;;;;;;;;;5001223;28;20831;-66
2022/12/26 00:50:39;;;;;;;7.60;2.50;;;;;;;;;;5001273;28;20057;-66
2022/12/26 00:53:05;;;;;;;6.30;2.00;;;;;;;;;;4982754;28;20038;-65
2022/12/26 00:55:31;;;;;;;6.38;2.20;;;;;;;;;;5000625;28;20443;-65
2022/12/26 00:57:57;;;;;;;6.10;2.33;;;;;;;;;;5001929;28;20046;-65
2022/12/26 01:00:23;;;;;;;8.13;2.30;;;;;;;;;;4978008;28;20068;-66
2022/12/26 01:02:50;;;;;;;7.68;2.72;;;;;;;;;;4986095;28;20038;-64
2022/12/26 01:05:16;;;;;;;4.68;2.28;;;;;;;;;;5003641;28;20108;-66
2022/12/26 01:07:42;;;;;;;4.72;2.13;;;;;;;;;;5004824;28;20042;-66
2022/12/26 01:10:11;;;;;;;9.50;2.25;;;;;;;;;;5002119;28;20505;-65
2022/12/26 01:12:37;;;;;;;6.72;2.28;;;;;;;;;;5005225;28;20408;-66
2022/12/26 01:15:05;;;;;;;4.85;2.00;;;;;;;;;;5004516;28;20049;-64
2022/12/26 01:17:32;;;;;;;7.22;2.00;;;;;;;;;;5006327;28;20073;-67
2022/12/26 01:19:58;;;;;;;4.82;1.90;;;;;;;;;;5000421;28;20112;-64
2022/12/26 01:22:26;;;;;;;6.22;2.20;;;;;;;;;;4999609;28;20521;-65
2022/12/26 01:24:53;;;;;;;5.53;1.80;;;;;;;;;;5003033;28;20379;-66
2022/12/26 01:27:19;;;;;;;7.00;2.10;;;;;;;;;;5003612;28;20438;-65
2022/12/26 01:29:45;;;;;;;6.88;1.85;;;;;;;;;;5004754;28;20045;-67
2022/12/26 01:32:11;;;;;;;6.68;1.90;;;;;;;;;;5005380;28;20073;-71
2022/12/26 01:34:37;;;;;;;7.32;2.33;;;;;;;;;;5007217;28;20045;-65
2022/12/26 01:37:03;;;;;;;4.82;1.75;;;;;;;;;;5008036;28;20042;-64
2022/12/26 01:39:29;;;;;;;6.40;2.38;;;;;;;;;;5005035;28;20041;-65
2022/12/26 01:41:55;;;;;;;8.45;2.03;;;;;;;;;;5004863;28;20123;-65
2022/12/26 01:44:52;;;;;;;4.82;1.83;;;;;;;;;;5001333;28;20045;-66
2022/12/26 01:47:21;;;;;;;7.50;2.00;;;;;;;;;;5008714;28;20064;-65
2022/12/26 01:49:51;;;;;;;5.72;2.08;;;;;;;;;;5001921;28;20043;-67
2022/12/26 01:52:41;;;;;;;5.75;1.83;;;;;;;;;;5002663;28;20460;-65
2022/12/26 01:55:12;;;;;;;8.27;2.10;;;;;;;;;;4996922;28;20042;-65
2022/12/26 01:57:43;;;;;;;4.53;1.63;;;;;;;;;;5004581;28;20515;-64
2022/12/26 02:00:10;;;;;;;5.75;1.95;;;;;;;;;;4999391;28;20118;-68
2022/12/26 02:05:33;;;;;;;4.82;1.98;;;;;;;;;;4967474;28;20350;-64
2022/12/26 02:08:28;;;;;;;7.03;1.92;;;;;;;;;;5003254;28;20046;-64
2022/12/26 02:11:06;;;;;;;8.65;1.98;;;;;;;;;;5002151;28;20053;-64
2022/12/26 02:13:35;;;;;;;6.30;1.90;;;;;;;;;;5004993;28;20050;-64
2022/12/26 02:16:04;;;;;;;7.15;2.10;;;;;;;;;;5002424;28;20052;-66
2022/12/26 02:18:30;;;;;;;4.78;2.10;;;;;;;;;;5002237;28;20568;-63
2022/12/26 02:21:18;;;;;;;3.92;1.83;;;;;;;;;;5005975;28;20050;-65
2022/12/26 02:23:59;;;;;;;10.73;2.17;;;;;;;;;;5002259;28;20132;-69
2022/12/26 02:26:59;;;;;;;7.43;1.83;;;;;;;;;;4984987;28;20644;-64
2022/12/26 02:29:46;;;;;;;4.53;1.75;;;;;;;;;;4999150;28;20042;-66
2022/12/26 02:32:31;;;;;;;4.70;1.70;;;;;;;;;;5001453;28;20054;-69
2022/12/26 02:35:02;;;;;;;5.03;1.75;;;;;;;;;;5002174;28;20081;-65
2022/12/26 02:38:07;;;;;;;7.85;1.98;;;;;;;;;;5003596;28;20113;-64
2022/12/26 02:40:50;;;;;;;5.20;1.55;;;;;;;;;;4981654;28;20050;-66
2022/12/26 02:43:25;;;;;;;5.15;1.60;;;;;;;;;;4999492;28;20065;-64
2022/12/26 02:49:31;;;;;;;4.60;2.08;;;;;;;;;;5000904;28;20678;-64
2022/12/26 03:15:16;;;;;;;7.75;1.92;;;;;;;;;;4994086;28;20057;-67
2022/12/26 03:17:48;;;;;;;5.93;2.25;;;;;;;;;;5002315;28;20046;-66
2022/12/26 03:20:18;;;;;;;3.92;1.90;;;;;;;;;;5003534;28;20077;-64
2022/12/26 03:22:52;;;;;;;5.43;2.60;;;;;;;;;;4999595;28;20049;-64
2022/12/26 03:28:16;;;;;;;5.05;1.73;;;;;;;;;;5001032;28;20045;-64
2022/12/26 03:30:47;;;;;;;5.13;1.60;;;;;;;;;;5002439;28;20065;-65
2022/12/26 03:36:50;;;;;;;7.32;2.05;;;;;;;;;;4999363;28;20454;-68
2022/12/26 04:45:40;;;;;;;8.45;2.33;;;;;;;;;;4960862;28;20055;-64
2022/12/26 04:50:52;;;;;;;4.97;1.92;;;;;;;;;;4968124;28;20105;-64
2022/12/26 04:53:19;;;;;;;8.55;2.35;;;;;;;;;;4994980;28;20054;-65
2022/12/26 04:55:45;;;;;;;12.57;3.55;;;;;;;;;;5009647;28;20311;-65
2022/12/26 04:58:11;;;;;;;5.38;2.47;;;;;;;;;;5004234;28;20534;-67
2022/12/26 05:00:37;;;;;;;5.20;2.42;;;;;;;;;;5005029;28;20104;-64
2022/12/26 05:11:29;;;;;;;8.32;2.40;;;;;;;;;;5006257;28;20049;-64
2022/12/26 05:13:56;;;;;;;9.35;2.83;;;;;;;;;;5004672;28;20141;-64
2022/12/26 05:30:20;;;;;;;9.00;2.53;;;;;;;;;;5006081;28;20638;-66
2022/12/26 05:35:31;;;;;;;11.75;2.85;;;;;;;;;;5007315;28;20053;-66
2022/12/26 05:37:58;;;;;;;6.30;2.20;;;;;;;;;;4992787;28;20068;-66
2022/12/26 05:40:23;;;;;;;5.90;2.03;;;;;;;;;;5009651;28;20046;-67
2022/12/26 05:42:49;;;;;;;12.30;3.08;;;;;;;;;;5007174;28;20452;-64
2022/12/26 05:45:15;;;;;;;6.47;2.38;;;;;;;;;;5005206;28;20042;-65
2022/12/26 05:47:41;;;;;;;5.93;2.63;;;;;;;;;;5006363;28;20042;-64
2022/12/26 05:50:07;;;;;;;6.63;2.70;;;;;;;;;;5006063;28;20313;-66
2022/12/26 05:52:33;;;;;;;9.48;2.33;;;;;;;;;;5005887;28;20187;-65
2022/12/26 05:54:59;;;;;;;8.85;2.30;;;;;;;;;;5005634;28;20487;-66
2022/12/26 05:57:25;;;;;;;5.97;2.10;;;;;;;;;;5005910;28;20057;-64
2022/12/26 05:59:52;;;;;;;7.15;2.10;;;;;;;;;;5006402;28;20049;-63
2022/12/26 06:02:18;;;;;;;7.57;2.42;;;;;;;;;;5005336;28;20054;-66
2022/12/26 06:04:44;;;;;;;6.82;2.28;;;;;;;;;;5005538;28;20394;-65
2022/12/26 06:07:10;;;;;;;6.63;2.10;;;;;;;;;;5007377;28;20050;-65
2022/12/26 06:09:36;;;;;;;11.25;2.22;;;;;;;;;;5012513;28;20057;-65
2022/12/26 06:12:02;;;;;;;7.45;2.25;;;;;;;;;;5006511;28;20045;-64
2022/12/26 06:14:28;;;;;;;9.07;2.45;;;;;;;;;;5007554;28;20065;-65
2022/12/26 06:16:54;;;;;;;6.88;2.50;;;;;;;;;;5005445;28;20070;-64
2022/12/26 06:19:20;;;;;;;10.43;2.80;;;;;;;;;;5005274;28;20046;-64
2022/12/26 06:21:46;;;;;;;9.32;2.30;;;;;;;;;;5004873;28;20508;-65
2022/12/26 06:24:12;;;;;;;6.47;1.95;;;;;;;;;;5007056;28;20564;-66
2022/12/26 06:26:39;;;;;;;8.07;2.45;;;;;;;;;;5005563;28;20061;-65
2022/12/26 06:29:06;;;;;;;9.82;2.45;;;;;;;;;;5005486;28;20042;-64
2022/12/26 06:31:32;;;;;;;8.27;3.00;;;;;;;;;;5004099;28;20417;-65
2022/12/26 06:34:00;;;;;;;8.63;2.40;;;;;;;;;;5002542;28;20052;-64
2022/12/26 06:36:29;;;;;;;10.23;2.45;;;;;;;;;;5006180;28;20472;-66
2022/12/26 06:38:55;;;;;;;8.43;2.50;;;;;;;;;;5007569;28;20053;-66
2022/12/26 06:41:23;;;;;;;5.85;2.08;;;;;;;;;;5008514;28;20049;-63
2022/12/26 06:43:49;;;;;;;6.72;2.13;;;;;;;;;;5008112;28;20049;-64
2022/12/26 06:46:18;;;;;;;19.13;2.40;;;;;;;;;;5007910;28;20065;-63
2022/12/26 06:48:44;;;;;;;9.75;2.53;;;;;;;;;;5005941;28;20042;-65
2022/12/26 06:51:12;;;;;;;8.43;2.13;;;;;;;;;;5004895;28;20121;-69
2022/12/26 06:53:39;;;;;;;8.52;2.20;;;;;;;;;;5005372;28;20048;-64
2022/12/26 06:56:10;;;;;;;8.57;3.42;;;;;;;;;;5004647;28;21847;-66
2022/12/26 06:58:36;;;;;;;11.60;2.30;;;;;;;;;;4993804;28;20041;-64
2022/12/26 07:01:04;;;;;;;10.35;2.30;;;;;;;;;;5003403;28;20046;-67
2022/12/26 07:03:30;;;;;;;8.15;2.00;;;;;;;;;;5005277;28;20048;-65
2022/12/26 07:06:01;;;;;;;6.30;2.13;;;;;;;;;;5005475;28;20060;-66
2022/12/26 07:08:27;;;;;;;8.60;2.45;;;;;;;;;;5000066;28;20074;-64
2022/12/26 07:10:53;;;;;;;9.02;2.10;;;;;;;;;;5000408;28;20058;-65
2022/12/26 07:13:19;;;;;;;9.88;2.40;;;;;;;;;;4998670;28;20265;-65
2022/12/26 07:15:45;;;;;;;13.50;2.60;;;;;;;;;;4997462;28;20054;-64
2022/12/26 07:18:11;;;;;;;15.18;2.55;;;;;;;;;;5001414;28;20046;-63
2022/12/26 07:20:37;;;;;;;7.15;2.55;;;;;;;;;;5000635;28;20060;-64
2022/12/26 07:23:03;;;;;;;9.80;3.30;;;;;;;;;;5000339;28;20140;-65
2022/12/26 07:25:29;;;;;;;13.18;3.28;;;;;;;;;;4995513;28;20034;-63
2022/12/26 07:27:55;;;;;;;15.57;4.18;;;;;;;;;;4965330;28;20532;-65
2022/12/26 07:30:21;;;;;;;14.10;4.72;;;;;;;;;;4995589;28;20080;-65
2022/12/26 07:32:55;;;;;;;18.08;5.03;;;;;;;;;;5103831;27;20751;-63
2022/12/26 07:35:21;;;;;;;16.55;5.55;;;;;;;;;;5086358;28;20048;-66
2022/12/26 07:37:47;;;;;;;21.42;7.57;;;;;;;;;;5084888;28;20051;-64
2022/12/26 07:40:13;;;;;;;24.10;7.82;;;;;;;;;;5086163;28;20060;-64
2022/12/26 07:42:39;;;;;;;24.05;8.32;;;;;;;;;;5086383;28;20137;-65
2022/12/26 07:45:05;;;;;;;17.38;7.93;;;;;;;;;;5086417;28;20090;-66
2022/12/26 07:47:31;;;;;;;17.67;7.50;;;;;;;;;;5090458;28;20040;-64
2022/12/26 07:49:57;;;;;;;16.42;7.63;;;;;;;;;;5088140;28;20048;-65
2022/12/26 07:52:23;;;;;;;24.50;7.03;;;;;;;;;;5084106;28;20481;-66
2022/12/26 07:54:49;;;;;;;15.65;6.28;;;;;;;;;;5083657;28;20061;-67
2022/12/26 07:57:15;;;;;;;24.90;7.32;;;;;;;;;;5087239;28;20051;-65
2022/12/26 07:59:41;;;;;;;27.75;7.53;;;;;;;;;;5081541;28;20051;-65
2022/12/26 08:02:09;;;;;;;12.75;6.30;;;;;;;;;;5083162;28;20066;-69
2022/12/26 08:04:35;;;;;;;14.95;6.00;;;;;;;;;;5083089;28;20050;-69
2022/12/26 08:07:01;;;;;;;14.57;6.25;;;;;;;;;;5082100;28;20043;-66
2022/12/26 08:09:27;;;;;;;17.75;5.32;;;;;;;;;;5089982;28;20052;-65
2022/12/26 08:11:53;;;;;;;13.98;4.97;;;;;;;;;;5083906;28;20056;-68
2022/12/26 08:14:19;;;;;;;15.27;5.03;;;;;;;;;;5089558;28;20062;-64
2022/12/26 08:16:45;;;;;;;17.08;3.63;;;;;;;;;;5084054;28;20125;-64
2022/12/26 08:19:11;;;;;;;16.23;4.78;;;;;;;;;;5084159;28;20109;-66
2022/12/26 08:21:37;;;;;;;15.40;4.97;;;;;;;;;;5086761;28;20036;-67
2022/12/26 08:24:03;;;;;;;17.65;4.43;;;;;;;;;;5070208;28;20051;-65
2022/12/26 08:26:29;;;;;;;13.80;4.10;;;;;;;;;;5083067;28;20055;-64
2022/12/26 08:28:55;;;;;;;11.27;3.90;;;;;;;;;;5084852;28;20550;-66
2022/12/26 08:31:22;;;;;;;15.90;3.80;;;;;;;;;;5085361;28;20074;-66
2022/12/26 08:33:48;;;;;;;14.60;4.47;;;;;;;;;;5078726;28;20058;-64
2022/12/26 08:36:18;;;;;;;17.65;4.53;;;;;;;;;;5084239;28;20686;-66
2022/12/26 08:38:45;;;;;;;25.45;5.32;;;;;;;;;;5092038;28;20051;-66
2022/12/26 08:41:10;;;;;;;17.55;5.55;;;;;;;;;;5090566;28;20056;-62
2022/12/26 08:43:37;;;;;;;20.05;6.55;;;;;;;;;;5085587;28;20048;-63
2022/12/26 08:46:10;;;;;;;21.00;7.10;;;;;;;;;;5077558;28;20040;-63
2022/12/26 08:48:38;;;;;;;38.28;11.98;;;;;;;;;;5072863;28;20055;-65
2022/12/26 08:51:07;;;;;;;18.80;8.07;;;;;;;;;;5078018;28;20050;-62
2022/12/26 08:53:35;;;;;;;16.58;6.80;;;;;;;;;;5084652;28;20102;-65
2022/12/26 08:56:03;;;;;;;22.05;6.85;;;;;;;;;;5059579;28;20046;-63
2022/12/26 08:58:29;;;;;;;15.20;6.10;;;;;;;;;;5081386;28;20044;-66
2022/12/26 09:01:04;;;;;;;19.45;6.82;;;;;;;;;;5074379;28;20071;-65
2022/12/26 09:03:30;;;;;;;18.60;6.00;;;;;;;;;;5072981;28;20154;-64
2022/12/26 09:05:59;;;;;;;23.55;5.65;;;;;;;;;;5080194;28;20523;-66
2022/12/26 09:08:25;;;;;;;14.25;5.65;;;;;;;;;;5079316;28;20044;-66
2022/12/26 09:10:51;;;;;;;12.75;4.68;;;;;;;;;;5084980;28;20101;-67
2022/12/26 09:13:19;;;;;;;25.85;4.78;;;;;;;;;;5074689;28;20047;-65
2022/12/26 09:15:44;;;;;;;13.98;4.07;;;;;;;;;;5075837;28;20047;-66
2022/12/26 09:18:10;;;;;;;17.20;4.63;;;;;;;;;;5077246;28;20128;-66
2022/12/26 09:20:36;;;;;;;18.80;4.68;;;;;;;;;;5070886;28;20067;-67
2022/12/26 09:23:02;;;;;;;15.07;4.65;;;;;;;;;;5081149;28;20048;-66
2022/12/26 09:25:28;;;;;;;15.60;4.35;;;;;;;;;;5076943;28;20051;-65
2022/12/26 09:27:55;;;;;;;13.50;4.20;;;;;;;;;;5066925;28;20051;-67
2022/12/26 09:30:21;;;;;;;13.27;4.15;;;;;;;;;;5066887;28;20043;-66
2022/12/26 09:32:48;;;;;;;14.10;3.97;;;;;;;;;;5080948;28;20086;-65
2022/12/26 09:35:14;;;;;;;19.92;4.68;;;;;;;;;;5074190;28;20112;-65
2022/12/26 09:37:40;;;;;;;16.65;4.18;;;;;;;;;;5066998;28;20044;-67
2022/12/26 09:40:16;;;;;;;28.67;4.10;;;;;;;;;;5069494;28;20048;-66
2022/12/26 09:43:22;;;;;;;18.48;3.90;;;;;;;;;;5071250;28;20105;-65
2022/12/26 09:46:06;;;;;;;27.33;4.90;;;;;;;;;;5052825;28;20771;-64
2022/12/26 09:48:43;;;;;;;11.65;4.00;;;;;;;;;;5074306;28;20165;-64
2022/12/26 09:51:09;;;;;;;17.25;4.50;;;;;;;;;;5056454;28;20045;-66
2022/12/26 09:53:42;;;;;;;16.10;3.83;;;;;;;;;;5077069;28;20097;-67
2022/12/26 09:56:15;;;;;;;12.95;4.30;;;;;;;;;;5077789;28;20048;-65
2022/12/26 09:58:50;;;;;;;24.10;4.10;;;;;;;;;;5081314;28;20424;-64
2022/12/26 10:01:20;;;;;;;18.27;4.30;;;;;;;;;;5079688;28;20481;-65
2022/12/26 10:03:53;;;;;;;25.27;3.90;;;;;;;;;;5075698;28;20060;-66
2022/12/26 10:06:21;;;;;;;12.00;3.75;;;;;;;;;;5074409;28;20339;-64
2022/12/26 10:09:16;;;;;;;12.65;3.83;;;;;;;;;;5082066;28;20063;-64
2022/12/26 10:12:00;;;;;;;11.90;3.70;;;;;;;;;;5056242;28;20052;-67
2022/12/26 10:14:26;;;;;;;10.60;3.80;;;;;;;;;;5079595;28;20062;-67
2022/12/26 10:17:10;;;;;;;9.90;3.63;;;;;;;;;;5082436;28;20608;-68
2022/12/26 10:19:56;;;;;;;19.20;6.28;;;;;;;;;;5076387;28;22243;-70
2022/12/26 10:22:27;;;;;;;23.23;4.22;;;;;;;;;;5080259;28;20050;-69
2022/12/26 10:24:57;;;;;;;17.38;4.53;;;;;;;;;;5080828;28;20746;-67
2022/12/26 10:27:26;;;;;;;15.02;4.20;;;;;;;;;;5079515;28;20167;-66
2022/12/26 10:30:18;;;;;;;24.05;5.15;;;;;;;;;;5065876;28;20052;-68
2022/12/26 10:32:47;;;;;;;14.77;5.18;;;;;;;;;;5080959;28;20121;-65
2022/12/26 10:35:21;;;;;;;14.43;4.80;;;;;;;;;;5076815;28;20058;-67
2022/12/26 10:37:49;;;;;;;23.25;5.65;;;;;;;;;;5078925;28;20198;-65
2022/12/26 10:40:26;;;;;;;20.95;5.55;;;;;;;;;;5056735;28;20127;-67
2022/12/26 10:43:01;;;;;;;14.27;5.00;;;;;;;;;;5073972;28;20810;-68
2022/12/26 10:45:39;;;;;;;16.45;5.72;;;;;;;;;;5071849;28;20398;-64
2022/12/26 10:48:05;;;;;;;20.08;6.03;;;;;;;;;;5079955;28;20071;-67
2022/12/26 10:50:33;;;;;;;30.15;6.60;;;;;;;;;;5062667;28;20048;-64
2022/12/26 10:53:03;;;;;;;21.33;6.30;;;;;;;;;;5075956;28;20048;-68
2022/12/26 10:55:31;;;;;;;21.48;7.25;;;;;;;;;;5077978;28;20044;-67
2022/12/26 10:58:06;;;;;;;15.95;5.82;;;;;;;;;;5076423;28;20047;-65
2022/12/26 11:00:33;;;;;;;17.75;6.32;;;;;;;;;;5073286;28;20055;-66
2022/12/26 11:03:07;;;;;;;24.17;7.03;;;;;;;;;;5053665;28;20100;-68
2022/12/26 11:05:55;;;;;;;17.98;6.43;;;;;;;;;;5066674;28;20844;-66
2022/12/26 11:08:27;;;;;;;17.15;6.82;;;;;;;;;;5078163;28;20097;-66
2022/12/26 11:11:04;;;;;;;16.85;6.47;;;;;;;;;;5074252;28;20451;-66
2022/12/26 11:13:35;;;;;;;24.40;7.20;;;;;;;;;;5078668;28;20071;-66
2022/12/26 11:16:02;;;;;;;18.50;6.60;;;;;;;;;;5079235;28;20503;-67
2022/12/26 11:18:35;;;;;;;17.92;6.75;;;;;;;;;;5082440;28;20044;-67
2022/12/26 11:21:17;;;;;;;16.20;6.72;;;;;;;;;;5075691;28;20039;-67
2022/12/26 11:23:44;;;;;;;21.05;6.55;;;;;;;;;;5075901;28;21067;-70
2022/12/26 11:26:30;;;;;;;18.95;6.55;;;;;;;;;;5079395;28;20040;-71
2022/12/26 11:29:11;;;;;;;30.08;6.57;;;;;;;;;;5074665;28;20096;-64
2022/12/26 11:31:40;;;;;;;21.02;6.25;;;;;;;;;;5079383;28;20040;-70
2022/12/26 11:34:16;;;;;;;18.88;7.03;;;;;;;;;;5074922;28;20093;-69
2022/12/26 11:36:48;;;;;;;25.35;6.18;;;;;;;;;;5062111;28;20040;-70
2022/12/26 11:39:22;;;;;;;21.67;7.47;;;;;;;;;;5075612;28;20087;-67
2022/12/26 11:41:48;;;;;;;15.50;6.03;;;;;;;;;;5078903;28;20669;-66
2022/12/26 11:44:16;;;;;;;14.25;6.25;;;;;;;;;;5075927;28;20044;-68
2022/12/26 11:47:15;;;;;;;28.77;6.57;;;;;;;;;;5076115;28;20433;-66
2022/12/26 11:49:50;;;;;;;14.77;5.43;;;;;;;;;;5074480;28;20093;-67
2022/12/26 11:53:05;;;;;;;16.55;5.78;;;;;;;;;;5074144;28;20052;-64
2022/12/26 11:55:35;;;;;;;21.95;5.78;;;;;;;;;;5064142;28;20040;-68
2022/12/26 11:58:08;;;;;;;17.75;6.10;;;;;;;;;;5079939;28;20054;-69
2022/12/26 12:00:40;;;;;;;14.88;6.03;;;;;;;;;;5077128;28;20056;-67
2022/12/26 12:03:20;;;;;;;14.98;6.18;;;;;;;;;;5074553;28;20194;-67
2022/12/26 12:05:52;;;;;;;13.80;6.05;;;;;;;;;;5072133;28;20049;-68
2022/12/26 12:08:33;;;;;;;21.73;6.20;;;;;;;;;;5074548;28;20063;-67
2022/12/26 12:11:25;;;;;;;19.90;6.40;;;;;;;;;;5074087;28;20036;-67
2022/12/26 12:14:07;;;;;;;15.98;6.75;;;;;;;;;;5070558;28;20609;-66
2022/12/26 12:17:00;;;;;;;17.30;6.32;;;;;;;;;;5073747;28;20146;-65
2022/12/26 12:19:45;;;;;;;15.43;6.80;;;;;;;;;;5065608;28;20048;-65
2022/12/26 12:22:38;;;;;;;22.88;7.07;;;;;;;;;;5083569;28;20036;-67
2022/12/26 12:25:25;;;;;;;19.48;6.93;;;;;;;;;;5081919;28;20060;-70
2022/12/26 12:27:59;;;;;;;21.35;6.43;;;;;;;;;;5077504;28;20064;-67
2022/12/26 12:30:37;;;;;;;30.33;14.65;;;;;;;;;;5072808;28;20044;-68
2022/12/26 12:33:23;;;;;;;22.48;7.18;;;;;;;;;;5077210;28;20056;-67
2022/12/26 12:36:11;;;;;;;20.65;7.55;;;;;;;;;;5078216;28;20055;-64
2022/12/26 12:39:01;;;;;;;18.63;6.32;;;;;;;;;;5050818;28;20125;-66
2022/12/26 12:41:46;;;;;;;18.65;5.53;;;;;;;;;;5059353;28;20070;-71
2022/12/26 12:44:18;;;;;;;;;;;;;;;;;;5063065;28;20385;-66
2022/12/26 12:47:09;;;;;;;17.83;6.72;;;;;;;;;;5079569;28;19928;-68
2022/12/26 12:50:20;;;;;;;20.52;7.07;;;;;;;;;;5076982;28;20060;-66
2022/12/26 12:53:10;;;;;;;31.08;8.35;;;;;;;;;;5019487;28;20234;-71
2022/12/26 12:55:51;;;;;;;27.67;8.00;;;;;;;;;;5075492;28;20051;-69
2022/12/26 12:58:35;;;;;;;25.00;9.18;;;;;;;;;;5077308;28;20051;-67
2022/12/26 13:01:08;;;;;;;30.98;9.15;;;;;;;;;;5074273;28;20071;-66
2022/12/26 13:03:45;;;;;;;30.80;9.35;;;;;;;;;;5081340;28;20040;-66
2022/12/26 13:06:13;;;;;;;33.35;14.15;;;;;;;;;;5078686;28;20055;-67
2022/12/26 13:08:49;;;;;;;35.80;11.60;;;;;;;;;;5084281;28;20056;-67
2022/12/26 13:11:32;;;;;;;32.00;12.77;;;;;;;;;;5078319;28;20054;-67
2022/12/26 13:14:22;;;;;;;53.70;22.70;;;;;;;;;;5058814;28;20058;-65
2022/12/26 13:17:05;;;;;;;38.38;13.95;;;;;;;;;;5077718;28;20557;-68
2022/12/26 13:19:39;;;;;;;28.55;10.00;;;;;;;;;;5075582;28;20050;-67
2022/12/26 13:22:15;;;;;;;28.17;9.25;;;;;;;;;;5079866;28;20049;-66
2022/12/26 13:24:45;;;;;;;31.98;10.73;;;;;;;;;;5078897;28;20066;-66
2022/12/26 13:27:30;;;;;;;31.95;10.75;;;;;;;;;;5080782;28;20123;-67
2022/12/26 13:29:56;;;;;;;21.83;7.82;;;;;;;;;;5078080;28;20052;-66
2022/12/26 13:32:26;;;;;;;32.72;11.93;;;;;;;;;;5076370;28;20124;-63
2022/12/26 13:34:55;;;;;;;42.45;20.20;;;;;;;;;;5081486;28;20072;-66
2022/12/26 13:37:39;;;;;;;52.85;22.40;;;;;;;;;;5070891;28;20043;-67
2022/12/26 13:40:16;;;;;;;24.27;10.32;;;;;;;;;;5056979;28;20052;-64
2022/12/26 13:46:02;;;;;;;31.45;15.00;;;;;;;;;;5080674;28;20108;-68
2022/12/26 13:48:31;;;;;;;47.28;20.60;;;;;;;;;;5079578;28;20582;-72
2022/12/26 13:51:00;;;;;;;21.15;8.30;;;;;;;;;;5077375;28;20056;-67
2022/12/26 13:53:36;;;;;;;17.98;8.15;;;;;;;;;;5082676;28;20565;-72
2022/12/26 13:56:17;;;;;;;29.58;8.93;;;;;;;;;;5071220;28;20533;-68
2022/12/26 13:58:54;;;;;;;16.60;6.57;;;;;;;;;;5084763;28;20055;-69
2022/12/26 14:01:26;;;;;;;32.38;12.57;;;;;;;;;;5082090;28;21348;-67
2022/12/26 14:04:17;;;;;;;34.40;15.88;;;;;;;;;;5070394;28;20048;-67
2022/12/26 14:07:08;;;;;;;32.40;14.77;;;;;;;;;;5076664;28;20066;-67
2022/12/26 14:09:55;;;;;;;19.30;7.28;;;;;;;;;;5074585;28;20052;-72
2022/12/26 14:12:36;;;;;;;17.85;7.30;;;;;;;;;;5063523;28;20048;-68
2022/12/26 14:15:17;;;;;;;25.13;8.77;;;;;;;;;;5078601;28;20050;-65
2022/12/26 14:18:28;;;;;;;21.65;7.50;;;;;;;;;;5076020;28;20056;-66
2022/12/26 14:21:12;;;;;;;18.58;7.43;;;;;;;;;;5076855;28;20055;-61
2022/12/26 14:23:54;;;;;;;31.45;10.63;;;;;;;;;;5078037;28;20044;-68
2022/12/26 14:26:46;;;;;;;18.70;7.68;;;;;;;;;;5085675;28;20595;-65
2022/12/26 14:29:18;;;;;;;16.17;7.35;;;;;;;;;;5060041;28;20090;-66
2022/12/26 14:32:03;;;;;;;19.80;7.40;;;;;;;;;;5081192;28;20130;-68
2022/12/26 14:35:01;;;;;;;15.90;7.65;;;;;;;;;;5067745;28;20828;-67
2022/12/26 14:37:36;;;;;;;18.92;7.35;;;;;;;;;;5078115;28;20055;-68
2022/12/26 14:40:33;;;;;;;20.08;7.80;;;;;;;;;;5079525;28;20044;-68
2022/12/26 14:43:11;;;;;;;20.98;9.00;;;;;;;;;;5080182;28;20683;-68
2022/12/26 14:45:49;;;;;;;21.73;7.50;;;;;;;;;;5075137;28;20040;-68
2022/12/26 14:48:15;;;;;;;19.30;8.18;;;;;;;;;;5079341;28;20036;-67
2022/12/26 14:50:45;;;;;;;18.00;7.78;;;;;;;;;;5071834;28;20416;-66
2022/12/26 14:53:33;;;;;;;17.55;7.20;;;;;;;;;;5065558;28;20051;-67
2022/12/26 14:56:19;;;;;;;17.30;7.45;;;;;;;;;;5082902;28;20036;-67
2022/12/26 14:58:47;;;;;;;25.13;8.82;;;;;;;;;;5064222;28;20044;-67
2022/12/26 15:01:19;;;;;;;18.40;7.63;;;;;;;;;;5071252;28;20062;-68
2022/12/26 15:03:53;;;;;;;23.13;7.78;;;;;;;;;;5083548;28;20044;-66
2022/12/26 15:06:19;;;;;;;18.08;6.82;;;;;;;;;;5087656;28;20050;-66
2022/12/26 15:09:12;;;;;;;17.45;6.93;;;;;;;;;;5088871;28;20071;-67
2022/12/26 15:11:57;;;;;;;19.50;7.57;;;;;;;;;;5075072;28;20056;-67
2022/12/26 15:14:51;;;;;;;19.45;8.70;;;;;;;;;;5080678;28;20053;-70
2022/12/26 15:17:32;;;;;;;15.57;8.75;;;;;;;;;;5069440;28;20052;-67
2022/12/26 15:20:22;;;;;;;19.17;8.38;;;;;;;;;;5075782;28;20493;-69
2022/12/26 15:23:16;;;;;;;15.40;7.63;;;;;;;;;;5075402;28;20044;-68
2022/12/26 15:26:20;;;;;;;17.55;7.75;;;;;;;;;;5075308;28;20968;-67
2022/12/26 15:29:16;;;;;;;16.92;7.70;;;;;;;;;;5064881;28;20067;-67
2022/12/26 15:32:16;;;;;;;20.67;7.75;;;;;;;;;;5074931;28;20060;-68
2022/12/26 15:34:45;;;;;;;16.13;6.78;;;;;;;;;;5081159;28;20048;-67
2022/12/26 15:37:20;;;;;;;16.05;6.82;;;;;;;;;;5075373;28;20086;-67
2022/12/26 15:40:09;;;;;;;17.02;7.00;;;;;;;;;;5068862;28;20055;-68
2022/12/26 15:42:43;;;;;;;14.77;6.55;;;;;;;;;;5083420;28;20036;-68
2022/12/26 15:45:38;;;;;;;26.30;7.38;;;;;;;;;;5078166;28;20134;-65
2022/12/26 15:48:36;;;;;;;18.85;6.82;;;;;;;;;;5081108;28;20040;-67
2022/12/26 15:51:05;;;;;;;15.27;7.53;;;;;;;;;;5073741;28;20048;-67
2022/12/26 15:53:34;;;;;;;20.15;6.97;;;;;;;;;;5082281;28;20115;-68
2022/12/26 15:56:10;;;;;;;20.08;7.82;;;;;;;;;;5077874;28;20069;-68
2022/12/26 15:58:59;;;;;;;19.30;6.72;;;;;;;;;;5078186;28;20098;-68
2022/12/26 16:01:47;;;;;;;26.30;7.47;;;;;;;;;;5076892;28;20052;-70
2022/12/26 16:04:38;;;;;;;20.27;6.53;;;;;;;;;;5080334;28;20040;-70
2022/12/26 16:07:19;;;;;;;20.23;6.82;;;;;;;;;;5080536;28;20046;-72
2022/12/26 16:09:51;;;;;;;16.83;6.70;;;;;;;;;;5078411;28;20060;-69
2022/12/26 16:12:21;;;;;;;19.98;6.68;;;;;;;;;;5078204;28;20093;-70
2022/12/26 16:14:47;;;;;;;28.77;7.40;;;;;;;;;;5081943;28;20086;-72
2022/12/26 16:17:13;;;;;;;22.25;7.85;;;;;;;;;;5075169;28;20048;-66
2022/12/26 16:19:40;;;;;;;22.17;7.68;;;;;;;;;;5086942;28;20070;-70
2022/12/26 16:24:59;;;;;;;20.17;7.22;;;;;;;;;;5088756;28;20146;-70
2022/12/26 16:27:26;;;;;;;25.00;6.88;;;;;;;;;;5079097;28;20105;-68
2022/12/26 16:29:59;;;;;;;28.63;7.47;;;;;;;;;;5087791;28;20076;-70
2022/12/26 16:32:37;;;;;;;24.67;7.25;;;;;;;;;;5066034;28;20060;-72
2022/12/26 16:35:03;;;;;;;16.38;6.72;;;;;;;;;;5084643;28;20040;-71
2022/12/26 16:37:30;;;;;;;20.15;7.00;;;;;;;;;;5073785;28;20481;-70
2022/12/26 16:40:11;;;;;;;22.73;7.10;;;;;;;;;;5080468;28;20040;-69
2022/12/26 16:42:41;;;;;;;20.30;7.35;;;;;;;;;;5071664;28;20044;-71
2022/12/26 16:45:16;;;;;;;18.20;6.63;;;;;;;;;;5081491;28;20453;-68
2022/12/26 16:47:43;;;;;;;27.83;6.78;;;;;;;;;;5077888;28;20126;-70
2022/12/26 16:50:25;;;;;;;17.95;6.03;;;;;;;;;;5082646;28;20052;-68
2022/12/26 16:53:14;;;;;;;18.88;7.10;;;;;;;;;;5083515;28;20370;-69
2022/12/26 16:55:54;;;;;;;17.25;6.35;;;;;;;;;;5075127;28;20144;-67
2022/12/26 16:58:24;;;;;;;17.30;6.72;;;;;;;;;;5080315;28;20060;-70
2022/12/26 17:01:15;;;;;;;24.27;6.53;;;;;;;;;;5077768;28;20455;-70
2022/12/26 17:04:01;;;;;;;19.05;6.22;;;;;;;;;;5080964;28;20048;-71
2022/12/26 17:06:37;;;;;;;17.45;6.25;;;;;;;;;;5082198;28;20044;-71
2022/12/26 17:09:08;;;;;;;13.80;5.65;;;;;;;;;;5086087;28;20060;-70
2022/12/26 17:11:37;;;;;;;17.88;5.63;;;;;;;;;;5082292;28;20209;-71
2022/12/26 17:14:12;;;;;;;13.32;5.43;;;;;;;;;;5086904;28;20640;-70
2022/12/26 17:16:38;;;;;;;16.63;5.75;;;;;;;;;;5060144;28;20064;-69
2022/12/26 17:19:17;;;;;;;16.63;6.47;;;;;;;;;;5081842;28;20456;-68
2022/12/26 17:22:21;;;;;;;12.50;5.53;;;;;;;;;;5077614;28;20060;-69
2022/12/26 17:24:50;;;;;;;22.20;5.78;;;;;;;;;;5074098;28;20048;-68
2022/12/26 17:27:24;;;;;;;14.40;6.03;;;;;;;;;;5063921;28;20131;-69